Time;durP1;ratioP1;P1;durP2;ratioP2;P2;SDS_P1;SDS_P2;PMS_P1;PMS_P2;Temp;Humidity;BMP_temperature;BMP_pressure;BME280_temperature;BME280_humidity;BME280_pressure;Samples;Min_cycle;Max_cycle;Signal;HPM_P1;HPM_P2
2022/07/03 00:01:18;;;;;;;2.95;1.60;;;17.80;99.90;;;;;;5095978;28;20098;-68
2022/07/03 00:03:43;;;;;;;4.15;1.90;;;17.80;99.90;;;;;;5095514;28;20050;-68
2022/07/03 00:06:09;;;;;;;3.60;1.90;;;17.70;99.90;;;;;;5073441;28;20052;-68
2022/07/03 00:08:36;;;;;;;3.17;1.70;;;17.70;99.90;;;;;;5057787;28;20086;-68
2022/07/03 00:11:01;;;;;;;4.13;1.70;;;17.60;99.90;;;;;;5075235;28;20390;-68
2022/07/03 00:13:27;;;;;;;5.00;1.90;;;17.60;99.90;;;;;;5075320;28;20139;-68
2022/07/03 00:15:52;;;;;;;3.13;1.60;;;17.50;99.90;;;;;;5057635;28;20044;-68
2022/07/03 00:18:18;;;;;;;4.00;1.77;;;17.50;99.90;;;;;;5057401;28;20518;-68
2022/07/03 00:21:04;;;;;;;5.88;2.13;;;17.40;99.90;;;;;;5075156;28;20049;-68
2022/07/03 00:23:39;;;;;;;3.13;1.70;;;17.40;99.90;;;;;;5074900;28;20457;-68
2022/07/03 00:26:05;;;;;;;4.18;1.60;;;17.40;99.90;;;;;;5057400;28;20044;-68
2022/07/03 00:28:31;;;;;;;5.28;2.30;;;17.30;99.90;;;;;;5057878;28;20349;-68
2022/07/03 00:30:58;;;;;;;2.78;1.73;;;17.30;99.90;;;;;;5057775;28;20048;-68
2022/07/03 00:33:27;;;;;;;3.55;2.03;;;17.20;99.90;;;;;;5057105;28;20048;-69
2022/07/03 00:35:55;;;;;;;5.63;2.15;;;17.20;99.90;;;;;;5063762;28;20494;-68
2022/07/03 00:38:22;;;;;;;2.60;1.70;;;17.10;99.90;;;;;;5076652;28;20047;-68
2022/07/03 00:40:48;;;;;;;3.50;1.70;;;17.10;99.90;;;;;;5077146;28;20128;-68
2022/07/03 00:43:16;;;;;;;6.00;1.77;;;17.00;99.90;;;;;;5077346;28;20465;-68
2022/07/03 00:45:46;;;;;;;7.20;2.13;;;17.00;99.90;;;;;;5077294;28;20048;-68
2022/07/03 00:48:14;;;;;;;3.75;2.33;;;16.90;99.90;;;;;;5077391;28;20067;-68
2022/07/03 00:50:45;;;;;;;4.28;1.90;;;16.90;99.90;;;;;;5091974;28;21144;-68
2022/07/03 00:53:13;;;;;;;4.47;2.00;;;16.80;99.90;;;;;;5074723;28;20475;-68
2022/07/03 00:55:41;;;;;;;4.07;2.38;;;16.80;99.90;;;;;;5057646;28;20060;-68
2022/07/03 00:58:07;;;;;;;3.65;2.08;;;16.70;99.90;;;;;;5057422;28;20044;-68
2022/07/03 01:00:39;;;;;;;6.38;1.92;;;16.60;99.90;;;;;;5056700;28;20076;-68
2022/07/03 01:03:07;;;;;;;4.85;1.90;;;16.60;99.90;;;;;;5075188;28;20045;-68
2022/07/03 01:05:35;;;;;;;3.90;2.40;;;16.50;99.90;;;;;;5057312;28;20087;-69
2022/07/03 01:08:19;;;;;;;3.45;2.28;;;16.50;99.90;;;;;;5075894;28;20506;-68
2022/07/03 01:11:02;;;;;;;3.70;2.40;;;16.40;99.90;;;;;;5078881;28;20070;-68
2022/07/03 01:13:37;;;;;;;6.10;2.20;;;16.40;99.90;;;;;;5079074;28;20045;-68
2022/07/03 01:16:13;;;;;;;4.32;2.13;;;16.30;99.90;;;;;;5061835;28;20052;-68
2022/07/03 01:18:47;;;;;;;7.10;2.60;;;16.30;99.90;;;;;;5044634;28;20056;-68
2022/07/03 01:21:40;;;;;;;7.13;2.40;;;16.30;99.90;;;;;;5078617;28;20040;-68
2022/07/03 01:24:44;;;;;;;3.65;2.35;;;16.20;99.90;;;;;;5078385;28;20121;-68
2022/07/03 01:27:29;;;;;;;4.22;2.38;;;16.20;99.90;;;;;;5061102;28;20380;-68
2022/07/03 01:30:07;;;;;;;3.25;2.38;;;16.20;99.90;;;;;;5061114;28;20044;-68
2022/07/03 01:32:41;;;;;;;4.43;2.33;;;16.10;99.90;;;;;;5060730;28;20127;-68
2022/07/03 01:35:08;;;;;;;3.28;2.08;;;16.10;99.90;;;;;;5060349;28;20063;-68
2022/07/03 01:37:35;;;;;;;3.40;2.13;;;16.00;99.90;;;;;;5080936;28;20502;-67
2022/07/03 01:40:04;;;;;;;4.20;2.40;;;15.90;99.90;;;;;;5098647;28;20043;-68
2022/07/03 01:42:33;;;;;;;5.07;2.90;;;15.90;99.90;;;;;;5098733;28;20044;-68
2022/07/03 01:44:59;;;;;;;4.53;2.63;;;15.80;99.90;;;;;;5098535;28;20097;-68
2022/07/03 01:47:26;;;;;;;3.85;2.28;;;15.80;99.90;;;;;;5098492;28;20426;-68
2022/07/03 01:49:53;;;;;;;4.75;2.08;;;15.80;99.90;;;;;;5080527;28;20352;-68
2022/07/03 01:52:20;;;;;;;3.53;2.60;;;15.70;99.90;;;;;;5063591;28;20483;-68
2022/07/03 01:54:47;;;;;;;4.28;2.40;;;15.70;99.90;;;;;;5080220;28;20130;-68
2022/07/03 01:57:13;;;;;;;4.15;2.58;;;15.60;99.90;;;;;;5073719;28;20048;-68
2022/07/03 01:59:38;;;;;;;4.30;2.72;;;15.60;99.90;;;;;;5077616;28;20048;-68
2022/07/03 02:02:29;;;;;;;5.30;2.47;;;15.60;99.90;;;;;;5078007;28;20433;-68
2022/07/03 02:05:09;;;;;;;7.07;2.47;;;15.50;99.90;;;;;;5060560;28;20054;-68
2022/07/03 02:07:51;;;;;;;4.47;2.42;;;15.50;99.90;;;;;;5077983;28;20135;-68
2022/07/03 02:10:23;;;;;;;3.40;2.38;;;15.40;99.90;;;;;;5077945;28;20045;-68
2022/07/03 02:12:52;;;;;;;4.88;2.92;;;15.50;99.90;;;;;;5059913;28;20103;-68
2022/07/03 02:15:30;;;;;;;4.47;2.85;;;15.30;99.90;;;;;;5060129;28;20487;-68
2022/07/03 02:17:57;;;;;;;5.00;3.22;;;15.30;99.90;;;;;;5059951;28;20197;-68
2022/07/03 02:20:25;;;;;;;6.97;2.80;;;15.30;99.90;;;;;;5077103;28;20048;-68
2022/07/03 02:23:00;;;;;;;6.95;3.45;;;15.30;99.90;;;;;;5077416;28;20059;-68
2022/07/03 02:25:33;;;;;;;4.28;3.00;;;15.30;99.90;;;;;;5059351;28;20056;-68
2022/07/03 02:28:46;;;;;;;6.13;3.65;;;15.20;99.90;;;;;;5059828;28;20056;-68
2022/07/03 02:31:16;;;;;;;6.63;3.25;;;15.20;99.90;;;;;;5053491;28;20057;-68
2022/07/03 02:33:44;;;;;;;7.50;3.42;;;15.20;99.90;;;;;;5059342;28;20045;-68
2022/07/03 02:36:11;;;;;;;6.57;3.00;;;15.10;99.90;;;;;;5077313;28;20048;-68
2022/07/03 02:38:36;;;;;;;5.50;3.13;;;15.10;99.90;;;;;;5077229;28;20052;-69
2022/07/03 02:41:19;;;;;;;5.43;3.05;;;15.10;99.90;;;;;;5060020;28;20048;-68
2022/07/03 02:44:25;;;;;;;4.32;3.22;;;15.10;99.90;;;;;;5059557;28;20067;-68
2022/07/03 02:47:11;;;;;;;4.10;3.00;;;15.00;99.90;;;;;;5077022;28;20375;-69
2022/07/03 02:49:50;;;;;;;4.07;2.90;;;14.90;99.90;;;;;;5076957;28;20040;-68
2022/07/03 02:52:34;;;;;;;5.45;3.35;;;14.90;99.90;;;;;;5058931;28;20067;-68
2022/07/03 02:55:07;;;;;;;7.43;3.15;;;14.90;99.90;;;;;;5059587;28;20057;-68
2022/07/03 02:57:39;;;;;;;4.43;2.90;;;14.80;99.90;;;;;;5068995;28;20484;-68
2022/07/03 03:00:07;;;;;;;4.45;2.70;;;14.80;99.90;;;;;;5059476;28;20110;-68
2022/07/03 03:02:50;;;;;;;7.35;2.47;;;14.80;99.90;;;;;;5076915;28;20056;-68
2022/07/03 03:05:35;;;;;;;5.20;2.90;;;14.80;99.90;;;;;;5076906;28;20044;-68
2022/07/03 03:08:29;;;;;;;5.07;3.20;;;14.80;99.90;;;;;;5058836;28;20055;-68
2022/07/03 03:11:07;;;;;;;5.93;2.95;;;14.70;99.90;;;;;;5076342;28;20059;-68
2022/07/03 03:13:34;;;;;;;4.88;3.50;;;14.70;99.90;;;;;;5058727;28;20135;-68
2022/07/03 03:16:11;;;;;;;5.22;3.42;;;14.80;99.90;;;;;;5076606;28;20080;-68
2022/07/03 03:18:38;;;;;;;5.72;3.10;;;14.70;99.90;;;;;;5059491;28;20369;-68
2022/07/03 03:21:08;;;;;;;5.10;2.88;;;14.70;99.90;;;;;;5058456;28;20088;-68
2022/07/03 03:23:52;;;;;;;4.22;2.95;;;14.60;99.90;;;;;;5076340;28;20064;-68
2022/07/03 03:26:20;;;;;;;4.88;3.28;;;14.70;99.90;;;;;;5076070;28;20036;-68
2022/07/03 03:28:46;;;;;;;4.38;3.25;;;14.70;99.90;;;;;;5057930;28;20162;-68
2022/07/03 03:31:13;;;;;;;7.00;3.42;;;14.60;99.90;;;;;;5075025;28;20036;-68
2022/07/03 03:33:43;;;;;;;5.75;3.47;;;14.70;99.90;;;;;;5058692;28;20335;-68
2022/07/03 03:36:12;;;;;;;4.82;3.40;;;14.70;99.90;;;;;;5076287;28;20087;-68
2022/07/03 03:38:39;;;;;;;4.63;3.47;;;14.70;99.90;;;;;;5076076;28;20127;-68
2022/07/03 03:41:06;;;;;;;4.65;3.38;;;14.90;99.90;;;;;;5058369;28;20052;-69
2022/07/03 03:43:32;;;;;;;5.88;3.60;;;14.90;99.90;;;;;;5041639;28;20452;-68
2022/07/03 03:45:59;;;;;;;5.10;3.58;;;15.00;99.90;;;;;;5075423;28;20505;-68
2022/07/03 03:48:27;;;;;;;5.57;3.80;;;15.00;99.90;;;;;;5058211;28;20044;-68
2022/07/03 03:50:53;;;;;;;5.00;3.30;;;15.00;99.90;;;;;;5058184;28;20121;-68
2022/07/03 03:53:19;;;;;;;5.80;3.30;;;15.00;99.90;;;;;;5076072;28;20428;-68
2022/07/03 03:56:01;;;;;;;6.45;3.90;;;15.10;99.90;;;;;;5060141;28;20067;-69
2022/07/03 03:58:29;;;;;;;6.45;3.55;;;15.10;99.90;;;;;;5078386;28;20429;-68
2022/07/03 04:00:59;;;;;;;4.10;3.25;;;15.10;99.90;;;;;;5078299;28;20440;-68
2022/07/03 04:03:26;;;;;;;4.95;3.50;;;15.10;99.90;;;;;;5078170;28;20101;-68
2022/07/03 04:05:52;;;;;;;7.10;4.13;;;15.10;99.90;;;;;;5078080;28;20040;-68
2022/07/03 04:08:19;;;;;;;5.75;4.13;;;15.20;99.90;;;;;;5095819;28;20047;-68
2022/07/03 04:10:45;;;;;;;4.93;3.33;;;15.10;99.90;;;;;;5072360;28;20048;-68
2022/07/03 04:13:11;;;;;;;5.93;3.40;;;15.10;99.90;;;;;;5058321;28;20048;-68
2022/07/03 04:15:36;;;;;;;5.35;3.30;;;15.10;99.90;;;;;;5075369;28;20043;-68
2022/07/03 04:18:02;;;;;;;5.97;3.50;;;15.10;99.90;;;;;;5075361;28;20083;-68
2022/07/03 04:20:28;;;;;;;6.72;3.65;;;15.10;99.90;;;;;;5075344;28;20052;-68
2022/07/03 04:22:53;;;;;;;6.53;4.45;;;15.10;99.90;;;;;;5057336;28;20048;-68
2022/07/03 04:25:19;;;;;;;5.82;3.35;;;15.10;99.90;;;;;;5060790;28;20048;-68
2022/07/03 04:27:44;;;;;;;6.25;3.88;;;15.20;99.90;;;;;;5078468;28;20051;-68
2022/07/03 04:30:11;;;;;;;6.88;4.30;;;15.20;99.90;;;;;;5095511;28;20444;-68
2022/07/03 04:32:37;;;;;;;4.50;3.00;;;15.10;99.90;;;;;;5077992;28;20135;-68
2022/07/03 04:35:03;;;;;;;4.47;3.15;;;15.10;99.90;;;;;;5077423;28;20050;-68
2022/07/03 04:37:29;;;;;;;6.38;4.00;;;15.20;99.90;;;;;;5077546;28;20044;-68
2022/07/03 04:39:55;;;;;;;4.75;3.88;;;15.30;99.90;;;;;;5093195;28;20047;-68
2022/07/03 04:42:20;;;;;;;9.82;3.85;;;15.30;99.90;;;;;;5090890;28;20037;-68
2022/07/03 04:44:46;;;;;;;6.85;3.85;;;15.40;99.90;;;;;;5074842;28;20056;-68
2022/07/03 04:47:12;;;;;;;9.13;3.63;;;15.40;99.90;;;;;;5075036;28;20047;-68
2022/07/03 04:49:38;;;;;;;5.38;3.28;;;15.50;99.90;;;;;;5057350;28;20076;-68
2022/07/03 04:52:04;;;;;;;5.80;3.63;;;15.50;99.90;;;;;;5074523;28;20094;-68
2022/07/03 04:54:31;;;;;;;5.53;3.72;;;15.50;99.90;;;;;;5057637;28;20127;-68
2022/07/03 04:56:56;;;;;;;7.55;3.67;;;15.60;99.90;;;;;;5063050;28;20132;-68
2022/07/03 04:59:22;;;;;;;5.45;3.50;;;15.70;99.90;;;;;;5057534;28;20467;-68
2022/07/03 05:01:49;;;;;;;6.70;4.43;;;15.70;99.90;;;;;;5041264;28;20048;-68
2022/07/03 05:04:15;;;;;;;4.88;3.30;;;15.80;99.90;;;;;;5074861;28;20048;-68
2022/07/03 05:06:41;;;;;;;6.28;3.60;;;15.90;99.90;;;;;;5057274;28;20063;-69
2022/07/03 05:09:06;;;;;;;7.28;4.10;;;16.00;99.90;;;;;;5057163;28;20453;-69
2022/07/03 05:11:32;;;;;;;6.57;4.03;;;16.10;99.90;;;;;;5074519;28;20076;-69
2022/07/03 05:13:57;;;;;;;7.43;3.90;;;16.10;99.90;;;;;;5074732;28;20454;-69
2022/07/03 05:16:23;;;;;;;7.70;3.80;;;16.20;99.90;;;;;;5074690;28;20045;-69
2022/07/03 05:18:49;;;;;;;6.82;3.75;;;16.70;99.90;;;;;;5056972;28;20056;-68
2022/07/03 05:21:14;;;;;;;7.18;3.70;;;17.80;99.90;;;;;;5074761;28;20048;-69
2022/07/03 05:23:40;;;;;;;6.00;3.00;;;19.10;99.90;;;;;;5074460;28;20406;-69
2022/07/03 05:26:05;;;;;;;5.07;3.15;;;20.20;99.90;;;;;;5067084;28;20051;-69
2022/07/03 05:28:31;;;;;;;4.45;2.95;;;21.20;99.90;;;;;;5074670;28;20056;-70
2022/07/03 05:30:57;;;;;;;5.28;2.75;;;22.20;99.90;;;;;;5093015;28;20050;-70
2022/07/03 05:33:22;;;;;;;4.95;2.53;;;23.10;99.90;;;;;;5082687;28;20119;-70
2022/07/03 05:35:48;;;;;;;6.35;2.30;;;24.00;99.90;;;;;;5076740;28;20056;-71
2022/07/03 05:39:31;;;;;;;5.10;2.50;;;24.70;99.90;;;;;;5094717;28;21453;-70
2022/07/03 05:40:59;;;;;;;5.60;2.33;;;25.30;99.90;;;;;;5067834;28;20056;-70
2022/07/03 05:43:25;;;;;;;6.25;2.22;;;26.00;99.90;;;;;;5073567;28;20040;-70
2022/07/03 05:45:50;;;;;;;4.28;1.80;;;26.60;99.90;;;;;;5063308;28;20049;-68
2022/07/03 05:48:16;;;;;;;3.65;1.70;;;26.90;99.90;;;;;;5073217;28;20062;-66
2022/07/03 05:50:41;;;;;;;2.72;1.70;;;26.30;99.90;;;;;;5073708;28;20048;-66
2022/07/03 05:53:07;;;;;;;4.40;1.90;;;26.20;99.90;;;;;;5074228;28;20052;-68
2022/07/03 05:55:32;;;;;;;3.22;1.80;;;26.90;99.80;;;;;;5058232;28;20121;-69
2022/07/03 05:57:58;;;;;;;5.55;1.60;;;27.30;99.10;;;;;;5060815;28;20196;-69
2022/07/03 06:00:23;;;;;;;2.45;1.30;;;27.40;98.20;;;;;;5060571;28;20044;-67
2022/07/03 06:02:49;;;;;;;3.55;1.70;;;27.10;98.40;;;;;;5077989;28;20490;-69
2022/07/03 06:05:15;;;;;;;3.00;1.60;;;26.80;98.10;;;;;;5084718;28;20063;-69
2022/07/03 06:07:40;;;;;;;4.07;1.30;;;26.10;98.50;;;;;;5071150;28;20052;-67
2022/07/03 06:10:06;;;;;;;2.92;1.20;;;25.50;98.30;;;;;;5088816;28;20051;-67
2022/07/03 06:12:32;;;;;;;4.10;1.50;;;24.80;99.50;;;;;;5087756;28;20137;-67
2022/07/03 06:14:57;;;;;;;2.63;1.20;;;24.50;99.90;;;;;;5067961;28;20474;-67
2022/07/03 06:17:23;;;;;;;1.83;1.20;;;24.40;99.90;;;;;;5115569;28;20065;-67
2022/07/03 06:19:48;;;;;;;2.97;1.20;;;24.20;99.90;;;;;;5050336;28;20102;-67
2022/07/03 06:22:14;;;;;;;2.00;1.13;;;24.00;99.90;;;;;;5097464;28;20368;-67
2022/07/03 06:24:40;;;;;;;2.47;1.25;;;24.20;99.90;;;;;;5080296;28;20063;-67
2022/07/03 06:27:05;;;;;;;3.67;1.50;;;24.30;99.90;;;;;;5091672;28;20044;-68
2022/07/03 06:29:31;;;;;;;2.85;1.25;;;24.20;99.90;;;;;;5067735;28;20419;-69
2022/07/03 06:31:56;;;;;;;2.53;1.35;;;24.40;99.90;;;;;;5059800;28;20040;-69
2022/07/03 06:34:22;;;;;;;4.00;1.27;;;25.20;99.90;;;;;;5059791;28;20103;-70
2022/07/03 06:36:48;;;;;;;3.50;1.17;;;26.20;99.90;;;;;;5059970;28;20056;-69
2022/07/03 06:39:13;;;;;;;2.60;1.00;;;27.00;97.70;;;;;;5059918;28;20136;-69
2022/07/03 06:41:39;;;;;;;5.22;1.00;;;27.50;97.10;;;;;;5059217;28;20049;-70
2022/07/03 06:44:05;;;;;;;3.13;1.23;;;27.50;96.90;;;;;;5077352;28;20502;-70
2022/07/03 06:46:30;;;;;;;6.07;1.10;;;27.10;96.10;;;;;;5059266;28;20098;-70
2022/07/03 06:48:56;;;;;;;3.53;1.17;;;27.00;96.80;;;;;;5059508;28;20041;-72
2022/07/03 06:51:21;;;;;;;4.00;1.27;;;27.00;97.10;;;;;;5063410;28;20048;-68
2022/07/03 06:53:47;;;;;;;1.73;0.90;;;26.70;96.40;;;;;;5059844;28;20119;-68
2022/07/03 06:56:13;;;;;;;2.67;0.90;;;26.40;95.50;;;;;;5059561;28;20491;-68
2022/07/03 06:58:38;;;;;;;3.55;0.90;;;26.20;96.20;;;;;;5077275;28;20051;-69
2022/07/03 07:01:04;;;;;;;1.80;0.75;;;25.80;96.80;;;;;;5076703;28;20047;-68
2022/07/03 07:03:29;;;;;;;2.10;0.80;;;25.60;97.50;;;;;;5059059;28;20048;-68
2022/07/03 07:05:55;;;;;;;1.48;0.60;;;25.50;97.10;;;;;;5063373;28;20101;-68
2022/07/03 07:08:20;;;;;;;3.03;0.90;;;25.20;97.30;;;;;;5067716;28;20033;-68
2022/07/03 07:10:46;;;;;;;3.47;0.70;;;24.80;96.90;;;;;;5069496;28;20427;-67
2022/07/03 07:13:12;;;;;;;3.60;1.05;;;24.40;97.30;;;;;;5068403;28;20113;-67
2022/07/03 07:15:37;;;;;;;3.55;0.98;;;24.20;98.20;;;;;;5065473;28;20044;-67
2022/07/03 07:18:03;;;;;;;3.83;0.80;;;24.40;98.60;;;;;;5059293;28;20067;-68
2022/07/03 07:20:28;;;;;;;1.73;0.80;;;24.90;98.60;;;;;;5076383;28;20109;-68
2022/07/03 07:22:54;;;;;;;3.03;0.90;;;25.10;97.70;;;;;;5058088;28;20059;-68
2022/07/03 07:25:20;;;;;;;3.53;1.58;;;25.20;97.90;;;;;;5059059;28;20514;-68
2022/07/03 07:27:45;;;;;;;2.00;0.75;;;25.30;98.20;;;;;;5076125;28;20086;-68
2022/07/03 07:30:11;;;;;;;4.60;0.80;;;25.30;97.50;;;;;;5075502;28;20094;-67
2022/07/03 07:32:37;;;;;;;1.20;0.80;;;25.10;98.60;;;;;;5058346;28;20044;-68
2022/07/03 07:35:03;;;;;;;2.58;0.88;;;25.10;98.50;;;;;;5076014;28;20043;-67
2022/07/03 07:37:28;;;;;;;3.00;1.02;;;25.40;98.50;;;;;;5058758;28;20036;-68
2022/07/03 07:39:54;;;;;;;2.92;1.00;;;25.40;98.50;;;;;;5058042;28;20075;-68
2022/07/03 07:42:20;;;;;;;4.93;1.80;;;25.50;98.10;;;;;;5066008;28;20059;-68
2022/07/03 07:44:45;;;;;;;4.60;1.13;;;26.30;98.10;;;;;;5078360;28;20126;-69
2022/07/03 07:47:11;;;;;;;3.53;1.10;;;27.60;97.50;;;;;;5084349;28;20372;-67
2022/07/03 07:49:36;;;;;;;4.15;1.15;;;28.20;95.90;;;;;;5058164;28;20059;-68
2022/07/03 07:52:02;;;;;;;1.92;0.85;;;28.70;95.80;;;;;;5076170;28;20079;-67
2022/07/03 07:54:29;;;;;;;5.30;0.90;;;28.60;95.40;;;;;;5062229;28;20062;-67
2022/07/03 07:56:54;;;;;;;4.15;1.08;;;29.10;95.60;;;;;;5095044;28;20560;-67
2022/07/03 07:59:20;;;;;;;1.85;0.93;;;29.60;93.30;;;;;;5081008;28;20052;-67
2022/07/03 08:07:24;;;;;;;2.22;1.00;;;30.70;93.00;;;;;;5077631;28;20045;-68
2022/07/03 08:09:52;;;;;;;2.15;0.82;;;30.90;93.30;;;;;;5074825;28;20147;-68
2022/07/03 08:12:19;;;;;;;4.13;0.82;;;30.80;91.30;;;;;;5077499;28;20052;-68
2022/07/03 08:14:44;;;;;;;3.70;1.02;;;30.70;92.30;;;;;;5057844;28;20044;-68
2022/07/03 08:17:10;;;;;;;4.95;0.80;;;31.20;92.70;;;;;;5075306;28;20423;-67
2022/07/03 08:19:36;;;;;;;2.60;1.25;;;31.60;92.60;;;;;;5059650;28;20044;-67
2022/07/03 08:22:01;;;;;;;3.15;1.05;;;31.50;91.40;;;;;;5074819;28;20040;-68
2022/07/03 08:24:28;;;;;;;1.85;0.80;;;31.50;91.30;;;;;;5057132;28;20051;-67
2022/07/03 08:26:53;;;;;;;1.52;0.57;;;31.40;90.60;;;;;;5057240;28;20037;-69
2022/07/03 08:29:19;;;;;;;1.67;0.55;;;31.30;89.80;;;;;;5058183;28;20395;-68
2022/07/03 08:31:44;;;;;;;5.07;0.75;;;31.20;86.60;;;;;;5075178;28;20089;-68
2022/07/03 08:34:13;;;;;;;4.22;0.85;;;31.20;89.20;;;;;;5074921;28;20151;-68
2022/07/03 08:36:40;;;;;;;1.23;0.60;;;31.10;89.30;;;;;;5067156;28;20209;-68
2022/07/03 08:39:06;;;;;;;2.42;0.70;;;31.20;87.20;;;;;;5057304;28;20376;-68
2022/07/03 08:41:32;;;;;;;1.42;0.60;;;30.70;86.90;;;;;;5065822;28;20048;-69
2022/07/03 08:44:00;;;;;;;2.10;0.60;;;30.60;88.30;;;;;;5066003;28;20037;-68
2022/07/03 08:46:27;;;;;;;2.15;0.73;;;30.70;88.10;;;;;;5070410;28;20048;-67
2022/07/03 08:48:54;;;;;;;2.75;0.70;;;30.60;89.30;;;;;;5066227;28;20058;-68
2022/07/03 08:51:21;;;;;;;4.18;0.75;;;31.00;89.40;;;;;;5085537;28;20070;-68
2022/07/03 08:53:47;;;;;;;1.25;0.60;;;31.20;87.90;;;;;;5076781;28;20081;-67
2022/07/03 08:56:13;;;;;;;3.10;0.65;;;31.00;87.50;;;;;;5076719;28;20040;-69
2022/07/03 08:58:39;;;;;;;2.20;0.77;;;29.90;87.20;;;;;;5073134;28;20423;-66
2022/07/03 09:01:05;;;;;;;5.20;0.93;;;29.60;88.50;;;;;;5071125;28;20077;-66
2022/07/03 09:03:31;;;;;;;0.85;0.47;;;29.40;88.50;;;;;;5084638;28;20032;-67
2022/07/03 09:05:58;;;;;;;1.55;0.65;;;29.10;89.70;;;;;;5084066;28;20040;-68
2022/07/03 09:08:28;;;;;;;1.55;0.65;;;28.90;89.10;;;;;;5078118;28;20416;-67
2022/07/03 09:10:54;;;;;;;1.30;0.50;;;28.70;89.60;;;;;;5056977;28;20064;-67
2022/07/03 09:13:19;;;;;;;1.25;0.60;;;29.20;90.20;;;;;;5056778;28;20377;-67
2022/07/03 09:15:45;;;;;;;4.40;0.50;;;29.40;89.50;;;;;;5040081;28;20132;-66
2022/07/03 09:18:10;;;;;;;1.45;0.60;;;29.40;89.30;;;;;;5057503;28;20052;-67
2022/07/03 09:20:40;;;;;;;3.30;0.68;;;29.20;88.00;;;;;;5090656;28;20036;-67
2022/07/03 09:23:20;;;;;;;1.80;0.70;;;29.70;89.50;;;;;;5056907;28;20040;-67
2022/07/03 09:25:57;;;;;;;5.00;0.80;;;30.00;87.80;;;;;;5040128;28;20055;-67
2022/07/03 09:28:52;;;;;;;1.38;0.60;;;30.30;87.30;;;;;;5057182;28;20354;-67
2022/07/03 09:31:26;;;;;;;4.50;0.68;;;30.00;87.20;;;;;;5061002;28;20118;-67
2022/07/03 09:33:59;;;;;;;4.38;0.70;;;29.70;86.10;;;;;;5060428;28;20048;-67
2022/07/03 09:36:40;;;;;;;4.30;0.70;;;29.30;84.30;;;;;;5060862;28;20059;-67
2022/07/03 09:39:25;;;;;;;2.67;0.70;;;29.00;88.40;;;;;;5077680;28;20537;-67
2022/07/03 09:41:54;;;;;;;1.55;0.55;;;29.00;89.70;;;;;;5061025;28;20052;-67
2022/07/03 09:44:45;;;;;;;1.50;0.55;;;28.70;87.60;;;;;;5077719;28;20057;-67
2022/07/03 09:47:16;;;;;;;1.80;0.50;;;28.80;87.00;;;;;;5060566;28;20169;-67
2022/07/03 09:50:04;;;;;;;2.17;0.70;;;28.80;86.80;;;;;;5060311;28;20070;-67
2022/07/03 09:52:44;;;;;;;1.35;0.40;;;28.80;87.00;;;;;;5064983;28;20306;-67
2022/07/03 09:55:09;;;;;;;1.00;0.40;;;28.70;86.80;;;;;;5061357;28;20056;-67
2022/07/03 09:57:36;;;;;;;0.93;0.40;;;28.50;85.50;;;;;;5060737;28;20067;-67
2022/07/03 10:00:15;;;;;;;1.13;0.40;;;28.50;84.80;;;;;;5078043;28;20461;-66
2022/07/03 10:03:04;;;;;;;1.88;0.65;;;28.30;83.80;;;;;;5060141;28;20056;-66
2022/07/03 10:05:38;;;;;;;0.40;0.40;;;28.30;85.80;;;;;;5078151;28;20048;-67
2022/07/03 10:08:10;;;;;;;1.23;0.60;;;28.30;84.50;;;;;;5077791;28;20044;-67
2022/07/03 10:10:38;;;;;;;0.50;0.50;;;28.30;86.20;;;;;;5060218;28;20040;-67
2022/07/03 10:13:05;;;;;;;1.00;0.60;;;28.30;86.00;;;;;;5060209;28;20371;-67
2022/07/03 10:15:32;;;;;;;2.28;0.57;;;28.10;87.50;;;;;;5077788;28;20117;-68
2022/07/03 10:17:59;;;;;;;1.02;0.52;;;28.30;87.90;;;;;;5077506;28;20099;-67
2022/07/03 10:20:39;;;;;;;2.88;0.60;;;28.40;88.10;;;;;;5060355;28;20055;-66
2022/07/03 10:23:05;;;;;;;0.80;0.40;;;28.70;86.70;;;;;;5060683;28;20048;-67
2022/07/03 10:25:31;;;;;;;3.03;0.93;;;28.60;86.80;;;;;;5077310;28;20048;-66
2022/07/03 10:27:58;;;;;;;1.95;0.77;;;28.50;87.20;;;;;;5059929;28;20044;-67
2022/07/03 10:30:25;;;;;;;1.77;0.50;;;28.60;86.70;;;;;;5077232;28;20040;-67
2022/07/03 10:32:53;;;;;;;2.30;0.52;;;28.60;86.60;;;;;;5060296;28;20131;-67
2022/07/03 10:35:34;;;;;;;1.90;0.60;;;28.70;85.80;;;;;;5059288;28;20056;-67
2022/07/03 10:38:02;;;;;;;2.40;0.60;;;28.60;85.70;;;;;;5077508;28;20052;-67
2022/07/03 10:46:29;;;;;;;1.38;0.60;;;28.50;85.50;;;;;;5060151;28;20048;-67
2022/07/03 10:49:07;;;;;;;1.15;0.60;;;28.30;86.40;;;;;;5042336;28;20406;-67
2022/07/03 10:51:45;;;;;;;1.52;0.50;;;28.50;88.10;;;;;;5076846;28;20056;-67
2022/07/03 10:54:22;;;;;;;2.40;0.65;;;28.50;86.50;;;;;;5076884;28;20079;-67
2022/07/03 10:57:00;;;;;;;4.88;0.70;;;28.40;87.20;;;;;;5059370;28;20136;-67
2022/07/03 10:59:32;;;;;;;1.35;0.65;;;28.50;86.00;;;;;;5076949;28;20353;-67
2022/07/03 11:02:16;;;;;;;4.05;0.70;;;28.60;89.30;;;;;;5059940;28;20481;-67
2022/07/03 11:04:59;;;;;;;3.70;0.85;;;28.80;87.80;;;;;;5076749;28;20059;-66
2022/07/03 11:07:33;;;;;;;1.58;0.50;;;28.90;84.10;;;;;;5059370;28;20045;-67
2022/07/03 11:10:12;;;;;;;1.10;0.50;;;28.80;86.60;;;;;;5076832;28;20040;-67
2022/07/03 11:12:56;;;;;;;2.08;0.73;;;28.90;84.10;;;;;;5079027;28;20059;-67
2022/07/03 11:15:27;;;;;;;1.50;0.55;;;28.60;83.00;;;;;;5096849;28;20083;-67
2022/07/03 11:18:07;;;;;;;2.85;0.75;;;28.70;85.20;;;;;;5079854;28;20044;-66
2022/07/03 11:20:34;;;;;;;1.65;0.57;;;28.80;87.10;;;;;;5078956;28;20452;-67
2022/07/03 11:23:13;;;;;;;2.67;0.68;;;28.80;85.70;;;;;;5096503;28;20043;-67
2022/07/03 11:25:43;;;;;;;3.30;0.73;;;28.70;85.20;;;;;;5074066;28;20041;-67
2022/07/03 11:28:34;;;;;;;2.92;0.77;;;28.60;85.40;;;;;;5058678;28;20056;-67
2022/07/03 11:31:09;;;;;;;2.38;0.63;;;28.60;84.80;;;;;;5075698;28;20041;-66
2022/07/03 11:33:53;;;;;;;3.72;0.60;;;28.30;84.80;;;;;;5076449;28;20118;-67
2022/07/03 11:36:25;;;;;;;1.42;0.77;;;28.40;86.30;;;;;;5058304;28;20460;-66
2022/07/03 11:39:03;;;;;;;3.40;0.63;;;28.60;86.80;;;;;;5058605;28;20045;-67
2022/07/03 11:41:34;;;;;;;1.52;0.68;;;28.60;85.80;;;;;;5075393;28;20059;-67
2022/07/03 11:44:04;;;;;;;3.53;0.60;;;28.80;86.00;;;;;;5058992;28;20058;-67
2022/07/03 11:46:32;;;;;;;1.83;0.77;;;29.00;86.90;;;;;;5058321;28;20131;-67
2022/07/03 11:49:25;;;;;;;2.55;0.70;;;29.10;86.40;;;;;;5058402;28;20055;-67
2022/07/03 11:52:02;;;;;;;2.00;0.57;;;28.70;85.90;;;;;;5072255;28;20040;-67
2022/07/03 11:54:48;;;;;;;3.08;0.80;;;28.30;86.00;;;;;;5075528;28;20055;-66
2022/07/03 11:57:14;;;;;;;2.80;0.90;;;28.20;88.10;;;;;;5057774;28;20052;-66
2022/07/03 11:59:40;;;;;;;2.20;0.60;;;28.50;87.90;;;;;;5075768;28;20040;-67
2022/07/03 12:02:06;;;;;;;2.42;0.98;;;28.70;87.30;;;;;;5075804;28;20051;-67
2022/07/03 12:04:32;;;;;;;2.72;0.88;;;28.60;86.60;;;;;;5075440;28;20051;-67
2022/07/03 12:06:59;;;;;;;6.85;1.00;;;28.50;87.30;;;;;;5041751;28;20059;-66
2022/07/03 12:09:33;;;;;;;4.85;1.10;;;28.30;87.50;;;;;;5058456;28;20127;-66
2022/07/03 12:12:03;;;;;;;2.17;1.00;;;28.10;85.60;;;;;;5081034;28;20115;-67
2022/07/03 12:14:36;;;;;;;1.35;0.80;;;28.10;87.80;;;;;;5075372;28;20064;-67
2022/07/03 12:17:02;;;;;;;4.00;0.93;;;28.00;88.30;;;;;;5075508;28;20327;-66
2022/07/03 12:19:27;;;;;;;3.28;0.70;;;27.70;88.60;;;;;;5075269;28;20047;-67
2022/07/03 12:21:53;;;;;;;2.13;0.80;;;27.90;89.80;;;;;;5075159;28;20492;-67
2022/07/03 12:24:20;;;;;;;2.25;0.93;;;28.00;90.20;;;;;;5057709;28;20052;-67
2022/07/03 12:26:47;;;;;;;3.00;0.90;;;28.30;90.20;;;;;;5057362;28;20044;-67
2022/07/03 12:29:14;;;;;;;4.15;0.80;;;28.20;88.60;;;;;;5057482;28;20048;-67
2022/07/03 12:31:41;;;;;;;1.30;0.57;;;28.00;88.50;;;;;;5075007;28;20040;-67
2022/07/03 12:34:07;;;;;;;3.20;0.98;;;27.80;86.70;;;;;;5057539;28;20138;-67
2022/07/03 12:36:33;;;;;;;3.03;0.60;;;28.00;87.20;;;;;;5075025;28;20049;-67
2022/07/03 12:39:02;;;;;;;3.65;0.90;;;28.20;87.60;;;;;;5075272;28;20338;-67
2022/07/03 12:41:27;;;;;;;2.35;0.70;;;28.20;87.50;;;;;;5074664;28;20120;-67
2022/07/03 12:43:54;;;;;;;2.63;0.63;;;28.10;86.60;;;;;;5057159;28;20131;-67
2022/07/03 12:46:25;;;;;;;2.40;0.68;;;28.10;86.80;;;;;;5075315;28;20040;-67
2022/07/03 12:48:52;;;;;;;2.75;0.82;;;28.20;86.50;;;;;;5057879;28;20543;-67
2022/07/03 12:51:40;;;;;;;1.15;0.60;;;28.30;86.00;;;;;;5074709;28;20049;-67
2022/07/03 12:54:12;;;;;;;4.03;0.90;;;28.30;86.70;;;;;;5057275;28;20161;-67
2022/07/03 12:56:39;;;;;;;2.25;1.00;;;28.30;88.50;;;;;;5074423;28;20115;-67
2022/07/03 12:59:17;;;;;;;4.07;0.95;;;28.40;88.70;;;;;;5057816;28;20362;-67
2022/07/03 13:01:44;;;;;;;3.97;1.00;;;28.50;89.50;;;;;;5057511;28;20052;-67
2022/07/03 13:04:14;;;;;;;2.67;0.70;;;28.80;89.00;;;;;;5057280;28;20091;-67
2022/07/03 13:06:45;;;;;;;4.50;0.77;;;28.90;88.80;;;;;;5057077;28;20056;-67
2022/07/03 13:09:11;;;;;;;2.35;0.68;;;29.10;87.30;;;;;;5056941;28;20421;-67
2022/07/03 13:11:43;;;;;;;1.42;0.85;;;28.90;88.40;;;;;;5057434;28;20141;-67
2022/07/03 13:14:11;;;;;;;4.23;0.70;;;28.90;88.40;;;;;;5057650;28;20186;-67